Time;durP1;ratioP1;P1;durP2;ratioP2;P2;SDS_P1;SDS_P2;PMS_P1;PMS_P2;Temp;Humidity;BMP_temperature;BMP_pressure;BME280_temperature;BME280_humidity;BME280_pressure;Samples;Min_cycle;Max_cycle;Signal;HPM_P1;HPM_P2
2022/06/10 00:01:07;;;;;;;18.98;4.78;;;;;;;16.94;52.45;101972.94;5200075;28;21688;-56
2022/06/10 00:03:40;;;;;;;19.02;4.55;;;;;;;16.98;52.52;101974.28;5204197;28;20484;-55
2022/06/10 00:06:14;;;;;;;20.23;5.07;;;;;;;17.07;52.61;101995.66;5201886;28;20432;-52
2022/06/10 00:08:49;;;;;;;18.33;4.28;;;;;;;17.03;52.66;101987.13;5203669;28;20785;-55
2022/06/10 00:11:22;;;;;;;19.10;4.50;;;;;;;16.96;52.83;101980.78;5202938;28;20450;-54
2022/06/10 00:13:55;;;;;;;18.30;4.53;;;;;;;16.96;52.92;101978.94;5203528;28;20393;-57
2022/06/10 00:16:27;;;;;;;24.67;5.90;;;;;;;16.89;53.06;101975.25;5200943;28;20413;-52
2022/06/10 00:19:00;;;;;;;21.83;4.88;;;;;;;16.96;53.36;101981.59;5201006;28;20463;-53
2022/06/10 00:21:32;;;;;;;23.42;4.57;;;;;;;16.96;53.29;101994.13;5201114;28;20449;-53
2022/06/10 00:24:05;;;;;;;15.35;4.38;;;;;;;16.92;53.49;101990.94;5201448;28;20524;-55
2022/06/10 00:26:39;;;;;;;21.52;4.88;;;;;;;16.87;53.61;101977.25;5203756;28;20435;-49
2022/06/10 00:29:11;;;;;;;14.77;4.70;;;;;;;16.78;53.77;101972.88;5202561;28;20821;-53
2022/06/10 00:31:44;;;;;;;25.27;4.68;;;;;;;16.57;53.86;101949.31;5203398;28;20496;-52
2022/06/10 00:34:17;;;;;;;15.00;3.97;;;;;;;16.81;53.77;101983.22;5202009;28;20569;-54
2022/06/10 00:36:49;;;;;;;21.13;4.82;;;;;;;16.76;53.97;101993.56;5207437;28;20424;-53
2022/06/10 00:39:21;;;;;;;18.27;4.10;;;;;;;16.74;53.89;101984.84;5203148;28;20986;-53
2022/06/10 00:41:55;;;;;;;14.80;3.95;;;;;;;16.68;53.99;101982.84;5203308;28;20864;-55
2022/06/10 00:44:38;;;;;;;12.45;3.75;;;;;;;16.70;53.88;101991.53;5200354;28;20425;-55
2022/06/10 00:47:19;;;;;;;15.45;3.90;;;;;;;16.67;53.99;101970.50;5201865;28;20896;-54
2022/06/10 00:49:56;;;;;;;12.57;4.07;;;;;;;16.68;54.03;101974.84;5201637;28;20906;-56
2022/06/10 00:52:33;;;;;;;19.87;3.93;;;;;;;16.68;53.96;101969.50;5202741;28;20417;-56
2022/06/10 00:55:08;;;;;;;17.05;4.05;;;;;;;16.67;53.99;101971.34;5198225;28;20428;-56
2022/06/10 00:57:46;;;;;;;14.90;3.95;;;;;;;16.63;53.92;101974.47;5204121;28;20647;-54
2022/06/10 01:00:20;;;;;;;19.70;4.28;;;;;;;16.69;53.81;101973.81;5201081;28;20505;-55
2022/06/10 01:02:52;;;;;;;15.43;3.83;;;;;;;16.70;53.79;101980.84;5202068;28;24860;-56
2022/06/10 01:05:28;;;;;;;14.40;3.50;;;;;;;16.68;54.02;101977.50;5211926;28;20899;-55
2022/06/10 01:08:04;;;;;;;13.18;3.38;;;;;;;16.66;53.97;101969.69;5200937;28;20415;-54
2022/06/10 01:10:46;;;;;;;15.43;3.40;;;;;;;16.66;54.01;101976.81;5201505;28;20421;-56
2022/06/10 01:13:29;;;;;;;17.00;3.72;;;;;;;16.70;53.94;101975.53;5201953;28;20427;-56
2022/06/10 01:16:11;;;;;;;16.58;3.35;;;;;;;16.67;53.82;101975.84;5198766;28;20504;-55
2022/06/10 01:18:56;;;;;;;15.03;3.77;;;;;;;16.77;54.04;101977.38;5201478;28;20422;-54
2022/06/10 01:22:13;;;;;;;23.38;4.20;;;;;;;16.78;54.02;101972.88;5199500;28;20508;-52
2022/06/10 01:25:16;;;;;;;13.43;3.00;;;;;;;16.77;54.15;101977.38;5203515;28;20933;-57
2022/06/10 01:28:07;;;;;;;12.25;3.72;;;;;;;16.85;54.04;101976.59;5201190;28;20479;-54
2022/06/10 01:31:05;;;;;;;14.52;3.50;;;;;;;16.87;54.09;101971.91;5193622;28;20429;-50
2022/06/10 01:34:08;;;;;;;12.75;3.75;;;;;;;16.94;54.00;101983.63;5180058;28;20419;-54
2022/06/10 01:36:53;;;;;;;13.52;3.58;;;;;;;16.96;54.04;101975.44;5180375;28;20403;-57
2022/06/10 01:39:39;;;;;;;14.43;3.50;;;;;;;16.77;54.02;101939.22;5184616;28;20435;-55
2022/06/10 01:42:16;;;;;;;17.30;3.95;;;;;;;16.91;54.04;101957.25;5171526;28;20410;-54
2022/06/10 01:44:59;;;;;;;16.50;3.30;;;;;;;17.03;53.97;101977.31;5180882;28;20420;-56
2022/06/10 01:47:40;;;;;;;14.15;3.38;;;;;;;17.07;54.00;101972.47;5181320;28;20447;-56
2022/06/10 01:50:16;;;;;;;11.07;3.20;;;;;;;17.10;54.05;101977.47;5179489;28;20972;-54
2022/06/10 01:52:55;;;;;;;16.87;3.80;;;;;;;17.09;53.98;101985.63;5182816;28;20541;-54
2022/06/10 01:55:33;;;;;;;20.40;3.57;;;;;;;17.17;54.05;101972.31;5181609;28;20529;-53
2022/06/10 01:58:12;;;;;;;20.65;4.25;;;;;;;17.14;53.89;101962.78;5178868;28;20414;-57
2022/06/10 02:00:50;;;;;;;15.25;3.78;;;;;;;17.13;53.98;101955.78;5179208;28;20434;-53
2022/06/10 02:03:29;;;;;;;18.48;4.45;;;;;;;17.16;53.93;101971.47;5180674;28;20434;-56
2022/06/10 02:06:06;;;;;;;11.57;3.38;;;;;;;17.17;54.01;101969.63;5166273;28;20407;-55
2022/06/10 02:08:43;;;;;;;13.55;3.97;;;;;;;17.23;54.05;101971.63;5171261;28;20427;-56
2022/06/10 02:11:19;;;;;;;19.00;4.15;;;;;;;17.26;53.94;101968.63;5179369;28;20447;-56
2022/06/10 02:13:56;;;;;;;14.40;3.90;;;;;;;17.17;54.05;101958.94;5182341;28;20498;-54
2022/06/10 02:16:32;;;;;;;17.67;4.40;;;;;;;17.32;54.04;101970.66;5180549;28;20407;-56
2022/06/10 02:19:14;;;;;;;18.05;4.88;;;;;;;17.33;53.99;101971.47;5177160;28;20775;-53
2022/06/10 02:21:50;;;;;;;15.20;3.58;;;;;;;17.33;54.13;101971.47;5179074;28;20952;-56
2022/06/10 02:24:26;;;;;;;16.00;3.72;;;;;;;17.25;54.13;101975.00;5180897;28;21394;-58
2022/06/10 02:27:05;;;;;;;15.00;3.90;;;;;;;17.33;54.04;101972.31;5152663;28;20456;-57
2022/06/10 02:29:45;;;;;;;13.02;3.75;;;;;;;17.21;54.07;101952.28;5170491;28;20482;-53
2022/06/10 02:32:18;;;;;;;19.80;4.65;;;;;;;17.31;54.18;101968.94;5196758;28;20492;-53
2022/06/10 02:34:54;;;;;;;21.07;4.70;;;;;;;17.37;54.21;101976.28;5196663;28;20417;-57
2022/06/10 02:37:34;;;;;;;19.57;4.27;;;;;;;17.25;54.12;101942.94;5197580;28;20472;-58
2022/06/10 02:40:14;;;;;;;13.93;3.60;;;;;;;17.17;54.16;101948.28;5196283;28;20440;-54
2022/06/10 02:42:57;;;;;;;20.27;4.30;;;;;;;17.42;54.15;101991.84;5196222;28;20433;-52
2022/06/10 02:45:38;;;;;;;12.18;3.17;;;;;;;17.19;54.29;101951.63;5197924;28;20425;-53
2022/06/10 02:48:17;;;;;;;11.43;3.58;;;;;;;17.46;54.21;101993.16;5195885;28;20428;-56
2022/06/10 02:50:51;;;;;;;13.60;3.35;;;;;;;17.46;54.25;101994.00;5197674;28;20495;-57
2022/06/10 02:53:23;;;;;;;18.13;4.22;;;;;;;17.43;54.52;101985.47;5189212;28;21768;-54
2022/06/10 02:55:56;;;;;;;18.70;4.78;;;;;;;17.41;54.53;102001.69;5172655;28;20500;-54
2022/06/10 03:01:48;;;;;;;17.53;4.40;;;;;;;17.40;54.85;101986.66;5108770;28;20768;-55
2022/06/10 03:04:28;;;;;;;14.98;4.25;;;;;;;17.14;54.92;101952.09;5184597;28;20840;-55
2022/06/10 03:07:27;;;;;;;13.65;3.58;;;;;;;17.33;54.94;101988.31;5187541;28;20410;-52
2022/06/10 03:10:16;;;;;;;17.65;4.82;;;;;;;17.17;55.14;101961.63;5193767;28;20482;-54
2022/06/10 03:13:09;;;;;;;15.48;5.13;;;;;;;17.36;55.29;101988.00;5196803;28;20421;-55
2022/06/10 03:16:04;;;;;;;15.30;4.97;;;;;;;17.37;55.40;101992.31;5193950;28;20742;-56
2022/06/10 03:18:47;;;;;;;15.90;4.57;;;;;;;17.18;55.45;101957.94;5194167;28;20504;-54
2022/06/10 03:21:28;;;;;;;17.30;4.00;;;;;;;17.35;55.65;101985.50;5196442;28;20425;-54
2022/06/10 03:24:12;;;;;;;15.23;4.43;;;;;;;17.36;56.12;101982.66;5196091;28;20535;-54
2022/06/10 03:26:51;;;;;;;12.27;3.28;;;;;;;17.27;56.09;101972.97;5197362;28;20433;-51
2022/06/10 03:29:32;;;;;;;15.53;3.43;;;;;;;17.13;56.14;101960.28;5188408;28;20507;-57
2022/06/10 03:32:12;;;;;;;18.48;4.63;;;;;;;17.18;56.19;101981.97;5192639;28;20417;-54
2022/06/10 03:34:48;;;;;;;14.07;4.07;;;;;;;17.34;56.50;101991.81;5199304;28;20452;-56
2022/06/10 03:37:22;;;;;;;16.58;4.57;;;;;;;16.74;56.52;101902.16;5200696;28;20441;-53
2022/06/10 03:39:58;;;;;;;18.27;3.92;;;;;;;17.29;56.74;101997.69;5192511;28;20440;-52
2022/06/10 03:42:32;;;;;;;16.25;4.35;;;;;;;17.09;56.92;101964.28;5199103;28;20755;-56
2022/06/10 03:45:06;;;;;;;19.83;5.37;;;;;;;17.27;57.11;102005.00;5199072;28;20489;-57
2022/06/10 03:47:39;;;;;;;20.60;4.53;;;;;;;17.24;57.05;102006.16;5183338;28;20517;-56
2022/06/10 03:50:17;;;;;;;16.52;5.05;;;;;;;17.21;57.33;101997.66;5192942;28;20440;-56
2022/06/10 03:52:49;;;;;;;23.00;5.35;;;;;;;17.08;57.43;101983.97;5199730;28;20670;-57
2022/06/10 03:55:23;;;;;;;14.75;4.75;;;;;;;17.21;57.48;102006.50;5201444;28;20538;-54
2022/06/10 03:57:56;;;;;;;17.75;4.90;;;;;;;17.16;57.62;102008.00;5202758;28;20412;-56
2022/06/10 04:00:32;;;;;;;22.08;5.80;;;;;;;17.08;57.73;101994.66;5200313;28;20432;-55
2022/06/10 04:03:07;;;;;;;15.82;4.88;;;;;;;17.13;57.88;102008.34;5197205;28;20520;-57
2022/06/10 04:05:40;;;;;;;19.27;4.72;;;;;;;17.15;58.06;102009.81;5199451;28;21877;-54
2022/06/10 04:08:13;;;;;;;16.50;4.57;;;;;;;17.14;58.12;102010.00;5189154;28;20435;-55
2022/06/10 04:10:46;;;;;;;18.67;5.28;;;;;;;17.16;58.15;102013.34;5200088;28;20509;-57
2022/06/10 04:13:20;;;;;;;18.00;4.57;;;;;;;17.15;58.54;102011.66;5202448;28;20871;-53
2022/06/10 04:15:53;;;;;;;20.10;5.07;;;;;;;17.15;58.45;102011.66;5204185;28;20881;-53
2022/06/10 04:18:25;;;;;;;20.00;5.32;;;;;;;17.17;58.43;102010.50;5181655;28;20420;-55
2022/06/10 04:20:58;;;;;;;16.48;5.50;;;;;;;17.15;58.74;102006.31;5189679;28;20481;-57
2022/06/10 04:23:30;;;;;;;18.15;5.50;;;;;;;17.16;58.71;102008.84;5201420;28;20794;-51
2022/06/10 04:26:04;;;;;;;19.33;5.82;;;;;;;17.17;58.98;102017.69;5204659;28;20398;-55
2022/06/10 04:28:37;;;;;;;11.32;5.07;;;;;;;17.12;58.97;102006.66;5198844;28;20418;-55
2022/06/10 04:31:09;;;;;;;17.80;5.72;;;;;;;17.13;59.15;102008.34;5206187;28;20463;-53
2022/06/10 04:33:42;;;;;;;18.10;6.50;;;;;;;17.22;59.19;102023.38;5204923;28;20416;-54
2022/06/10 04:36:18;;;;;;;14.30;5.78;;;;;;;17.12;59.29;102006.66;5207194;28;20488;-54
2022/06/10 04:38:51;;;;;;;16.63;5.97;;;;;;;17.19;59.49;102010.34;5205097;28;20445;-54
2022/06/10 04:41:25;;;;;;;18.27;5.65;;;;;;;17.20;59.52;102012.00;5205958;28;20902;-52
2022/06/10 04:43:57;;;;;;;16.02;5.18;;;;;;;17.16;59.56;102011.50;5207476;28;20422;-54
2022/06/10 04:46:34;;;;;;;13.73;5.70;;;;;;;17.19;59.85;102013.03;5204971;28;20444;-56
2022/06/10 04:49:07;;;;;;;16.05;5.60;;;;;;;17.27;59.79;102013.00;5204347;28;20401;-53
2022/06/10 04:51:40;;;;;;;19.95;6.03;;;;;;;17.20;59.87;101986.16;5206541;28;20561;-54
2022/06/10 04:54:12;;;;;;;15.15;5.38;;;;;;;17.34;60.06;102008.66;5207720;28;20457;-54
2022/06/10 04:56:46;;;;;;;18.98;6.10;;;;;;;17.34;60.03;102000.66;5205502;28;20425;-52
2022/06/10 04:59:18;;;;;;;16.85;5.28;;;;;;;17.29;60.13;101992.34;5205809;28;20964;-54
2022/06/10 05:01:52;;;;;;;16.13;5.85;;;;;;;17.46;60.67;102003.84;5206787;28;20459;-52
2022/06/10 05:04:25;;;;;;;13.75;5.43;;;;;;;17.49;60.41;102004.34;5200899;28;20414;-55
2022/06/10 05:06:57;;;;;;;13.93;5.00;;;;;;;17.59;60.55;102008.69;5208013;28;20407;-57
2022/06/10 05:09:30;;;;;;;11.82;4.72;;;;;;;17.58;60.60;102009.69;5207320;28;20421;-58
2022/06/10 05:12:04;;;;;;;17.17;4.78;;;;;;;17.48;60.72;101997.34;5209235;28;20433;-57
2022/06/10 05:14:37;;;;;;;12.50;4.45;;;;;;;17.38;60.93;101974.50;5204031;28;20421;-56
2022/06/10 05:17:10;;;;;;;12.55;4.57;;;;;;;17.63;60.85;102015.38;5206957;28;20420;-58
2022/06/10 05:19:44;;;;;;;13.32;4.43;;;;;;;17.62;60.94;102008.34;5206687;28;20410;-53
2022/06/10 05:22:17;;;;;;;15.55;4.40;;;;;;;17.62;61.16;102013.69;5204241;28;20813;-55
2022/06/10 05:24:50;;;;;;;17.43;4.60;;;;;;;17.65;61.21;102018.69;5205929;28;20448;-55
2022/06/10 05:27:24;;;;;;;11.23;4.00;;;;;;;17.61;61.33;102007.53;5206636;28;20518;-54
2022/06/10 05:29:56;;;;;;;16.63;4.60;;;;;;;17.73;61.17;102016.88;5204594;28;20484;-52
2022/06/10 05:32:28;;;;;;;14.40;4.10;;;;;;;17.76;61.24;102015.69;5171086;28;20509;-54
2022/06/10 05:35:01;;;;;;;13.98;3.92;;;;;;;17.72;61.42;102009.03;5177980;28;20410;-50
2022/06/10 05:37:34;;;;;;;11.38;3.55;;;;;;;17.74;61.29;102007.00;5173567;28;20407;-48
2022/06/10 05:40:08;;;;;;;15.68;3.92;;;;;;;17.82;61.39;102036.44;5185418;28;20788;-55
2022/06/10 05:43:10;;;;;;;13.15;3.88;;;;;;;17.91;61.18;102013.22;5184869;28;20430;-50
2022/06/10 05:45:43;;;;;;;13.60;3.63;;;;;;;17.92;61.22;102015.69;5183023;28;20435;-54
2022/06/10 05:48:15;;;;;;;11.43;3.65;;;;;;;17.97;61.11;102017.88;5186580;28;20824;-54
2022/06/10 05:50:48;;;;;;;13.25;3.58;;;;;;;18.00;61.11;102022.06;5184695;28;20780;-56
2022/06/10 05:53:20;;;;;;;16.83;4.78;;;;;;;17.91;61.19;102003.34;5185948;28;20518;-54
2022/06/10 05:55:53;;;;;;;13.45;4.15;;;;;;;18.09;61.04;102021.03;5187410;28;20516;-51
2022/06/10 05:58:27;;;;;;;17.90;4.53;;;;;;;18.16;61.11;102030.88;5186233;28;20781;-55
2022/06/10 06:00:59;;;;;;;20.52;5.60;;;;;;;18.20;61.05;102028.69;5182709;28;21033;-56
2022/06/10 06:03:31;;;;;;;15.07;4.13;;;;;;;18.27;61.00;102024.34;5186815;28;20422;-58
2022/06/10 06:06:04;;;;;;;14.43;3.78;;;;;;;18.19;60.88;102008.31;5182839;28;20493;-50
2022/06/10 06:08:37;;;;;;;10.98;4.15;;;;;;;18.36;61.02;102042.00;5184770;28;20422;-55
2022/06/10 06:11:10;;;;;;;12.57;4.13;;;;;;;18.32;60.86;102021.13;5182103;28;20547;-54
2022/06/10 06:13:44;;;;;;;11.50;4.20;;;;;;;18.26;60.79;102011.94;5148940;28;20464;-55
2022/06/10 06:16:19;;;;;;;13.32;4.35;;;;;;;18.39;60.95;102030.97;5177282;28;20410;-57
2022/06/10 06:18:52;;;;;;;14.05;4.97;;;;;;;18.44;60.72;102041.16;5183928;28;20794;-57
2022/06/10 06:21:36;;;;;;;11.60;3.77;;;;;;;18.43;60.59;102045.69;5183113;28;20419;-56
2022/06/10 06:24:09;;;;;;;13.43;4.32;;;;;;;18.14;60.92;102007.97;5185541;28;20447;-54
2022/06/10 06:26:42;;;;;;;16.27;4.78;;;;;;;18.36;60.72;102033.97;5186253;28;20558;-55
2022/06/10 06:29:16;;;;;;;14.10;4.38;;;;;;;18.11;60.55;101992.28;5187289;28;20520;-56
2022/06/10 06:31:50;;;;;;;15.30;3.90;;;;;;;18.40;60.71;102040.66;5201835;28;20429;-54
2022/06/10 06:34:24;;;;;;;15.32;3.90;;;;;;;18.41;60.84;102042.34;5205672;28;20417;-56
2022/06/10 06:36:57;;;;;;;11.15;3.85;;;;;;;18.44;60.65;102047.34;5203370;28;20431;-56
2022/06/10 06:39:30;;;;;;;16.65;4.13;;;;;;;18.49;60.81;102046.84;5191242;28;20417;-57
2022/06/10 06:42:03;;;;;;;17.23;4.55;;;;;;;18.49;60.43;102032.59;5209303;28;20508;-55
2022/06/10 06:44:37;;;;;;;16.10;4.72;;;;;;;18.63;60.32;102046.09;5205044;28;20421;-61
2022/06/10 06:47:13;;;;;;;14.02;4.43;;;;;;;18.64;60.34;102042.44;5206610;28;20417;-58
2022/06/10 06:49:46;;;;;;;16.17;4.68;;;;;;;18.65;60.21;102037.91;5208141;28;20421;-59
2022/06/10 06:52:18;;;;;;;18.35;5.05;;;;;;;18.66;60.13;102028.88;5208480;28;20484;-59
2022/06/10 06:54:51;;;;;;;16.77;4.47;;;;;;;18.78;60.09;102040.88;5207330;28;20433;-57
2022/06/10 06:57:25;;;;;;;14.27;3.85;;;;;;;18.87;59.96;102041.69;5204825;28;20415;-57
2022/06/10 07:00:06;;;;;;;21.35;4.93;;;;;;;18.96;59.99;102045.16;5192332;28;20421;-55
2022/06/10 07:02:39;;;;;;;15.13;4.78;;;;;;;18.98;59.77;102035.91;5195559;28;20408;-56
2022/06/10 07:05:12;;;;;;;15.38;4.05;;;;;;;19.01;59.63;102032.06;5194258;28;20409;-59
2022/06/10 07:07:45;;;;;;;13.05;3.97;;;;;;;19.14;59.53;102048.41;5208000;28;20421;-57
2022/06/10 07:10:21;;;;;;;15.90;3.67;;;;;;;19.20;59.53;102053.06;5211009;28;20512;-56
2022/06/10 07:12:53;;;;;;;14.40;4.10;;;;;;;19.14;59.47;102029.66;5210935;28;20417;-58
2022/06/10 07:15:28;;;;;;;13.20;4.30;;;;;;;19.34;59.34;102048.75;5201867;28;20557;-54
2022/06/10 07:18:01;;;;;;;16.17;4.35;;;;;;;19.34;59.24;102038.88;5168219;28;20426;-58
2022/06/10 07:20:36;;;;;;;15.40;4.63;;;;;;;19.49;59.01;102056.88;5189788;28;20435;-58
2022/06/10 07:23:09;;;;;;;12.27;3.63;;;;;;;19.58;58.80;102066.50;5202290;28;20417;-58
2022/06/10 07:25:41;;;;;;;11.48;3.92;;;;;;;19.61;58.88;102044.72;5202917;28;20417;-60
2022/06/10 07:28:15;;;;;;;15.75;3.78;;;;;;;19.77;58.57;102063.34;5204105;28;20444;-57
2022/06/10 07:30:50;;;;;;;16.15;3.65;;;;;;;19.87;58.33;102060.41;5204057;28;20483;-57
2022/06/10 07:33:22;;;;;;;13.55;3.35;;;;;;;19.93;58.33;102061.56;5180908;28;20493;-54
2022/06/10 07:35:58;;;;;;;15.98;3.80;;;;;;;19.90;58.08;102054.69;5193444;28;20417;-56
2022/06/10 07:38:30;;;;;;;13.80;3.63;;;;;;;20.00;57.99;102059.78;5206637;28;20431;-58
2022/06/10 07:43:53;;;;;;;13.67;3.57;;;;;;;19.97;57.64;102069.03;5206277;28;20534;-54
2022/06/10 07:46:26;;;;;;;11.67;3.70;;;;;;;19.87;57.62;102065.78;5205799;28;20428;-56
2022/06/10 07:48:59;;;;;;;16.65;4.05;;;;;;;19.87;57.63;102075.69;5204736;28;20492;-52
2022/06/10 07:51:32;;;;;;;14.13;3.67;;;;;;;19.75;57.57;102065.38;5206846;28;20424;-56
2022/06/10 07:54:04;;;;;;;14.93;3.85;;;;;;;19.77;57.74;102076.75;5201417;28;20903;-51
2022/06/10 07:56:37;;;;;;;14.10;3.65;;;;;;;19.56;57.83;102034.50;5201535;28;20554;-57
2022/06/10 07:59:11;;;;;;;10.77;3.20;;;;;;;19.69;57.86;102058.06;5189124;28;20940;-57
2022/06/10 08:01:44;;;;;;;13.82;3.60;;;;;;;19.79;57.93;102072.06;5200869;28;20508;-57
2022/06/10 08:04:17;;;;;;;12.30;3.17;;;;;;;19.83;57.91;102069.84;5196797;28;20521;-58
2022/06/10 08:06:50;;;;;;;16.55;3.55;;;;;;;19.90;57.95;102069.97;5210080;28;20421;-58
2022/06/10 08:09:23;;;;;;;14.52;3.42;;;;;;;19.94;57.95;102069.41;5204018;28;20520;-60
2022/06/10 08:11:55;;;;;;;13.13;3.53;;;;;;;20.00;58.04;102065.16;5202717;28;20861;-62
2022/06/10 08:14:28;;;;;;;12.48;4.22;;;;;;;20.07;57.95;102058.06;5206273;28;20447;-58
2022/06/10 08:17:06;;;;;;;14.27;4.13;;;;;;;20.14;57.74;102052.81;5202978;28;20435;-56
2022/06/10 08:20:09;;;;;;;16.10;3.60;;;;;;;20.44;57.83;102069.72;5201269;28;20500;-56
2022/06/10 08:22:40;;;;;;;16.20;3.10;;;;;;;20.54;57.74;102064.97;5199476;28;20868;-56
2022/06/10 08:25:44;;;;;;;11.00;3.50;;;;;;;20.65;57.76;102061.78;5206360;28;20793;-58
2022/06/10 08:28:17;;;;;;;12.60;3.33;;;;;;;20.80;57.76;102064.47;5205494;28;20421;-60
2022/06/10 08:30:50;;;;;;;18.60;3.88;;;;;;;20.97;57.59;102051.66;5206277;28;20456;-59
2022/06/10 08:33:24;;;;;;;14.88;4.00;;;;;;;21.35;57.44;102048.75;5205972;28;20831;-58
2022/06/10 08:35:57;;;;;;;14.43;4.05;;;;;;;21.76;57.08;102061.56;5201912;28;20898;-60
2022/06/10 08:38:30;;;;;;;14.10;3.72;;;;;;;22.01;56.84;102060.09;5205131;28;20495;-57
2022/06/10 08:41:07;;;;;;;13.87;4.07;;;;;;;22.03;56.67;102047.31;5207388;28;20496;-57
2022/06/10 08:44:10;;;;;;;13.77;3.80;;;;;;;22.25;56.74;102055.34;5204041;28;20561;-58
2022/06/10 08:47:09;;;;;;;16.93;4.30;;;;;;;22.47;56.27;102051.53;5201210;28;20475;-57
2022/06/10 08:50:13;;;;;;;15.38;4.32;;;;;;;22.59;56.13;102067.13;5202309;28;20417;-56
2022/06/10 08:52:57;;;;;;;11.77;3.60;;;;;;;22.57;55.92;102059.22;5203535;28;20743;-54
2022/06/10 08:55:46;;;;;;;16.25;4.45;;;;;;;22.30;56.18;102055.59;5200989;28;20721;-56
2022/06/10 08:58:24;;;;;;;14.57;3.60;;;;;;;22.28;56.04;102063.84;5196969;28;20439;-58
2022/06/10 09:01:02;;;;;;;12.90;3.43;;;;;;;22.49;55.66;102062.13;5201102;28;20465;-51
2022/06/10 09:03:43;;;;;;;10.98;3.08;;;;;;;22.74;55.40;102059.75;5199143;28;20486;-57
2022/06/10 09:06:23;;;;;;;11.18;3.53;;;;;;;22.94;55.08;102055.28;5198398;28;20433;-58
2022/06/10 09:09:01;;;;;;;10.70;3.63;;;;;;;23.08;54.80;102063.41;5198418;28;20417;-55
2022/06/10 09:11:39;;;;;;;12.60;3.22;;;;;;;23.34;54.73;102066.16;5201877;28;20471;-53
2022/06/10 09:14:18;;;;;;;14.85;3.10;;;;;;;23.41;54.55;102058.94;5195019;28;20415;-56
2022/06/10 09:16:56;;;;;;;15.05;4.10;;;;;;;23.55;54.14;102067.84;5201912;28;20507;-58
2022/06/10 09:19:44;;;;;;;13.88;3.00;;;;;;;23.65;54.11;102067.44;5197202;28;20525;-56
2022/06/10 09:22:27;;;;;;;11.70;3.30;;;;;;;23.48;54.01;102059.75;5198151;28;20424;-58
2022/06/10 09:25:07;;;;;;;11.38;3.10;;;;;;;23.45;53.88;102073.66;5199368;28;20508;-55
2022/06/10 09:27:44;;;;;;;11.57;3.47;;;;;;;23.28;53.85;102053.50;5195951;28;20507;-51
2022/06/10 09:30:21;;;;;;;13.70;3.53;;;;;;;23.36;53.93;102063.28;5204166;28;20439;-58
2022/06/10 09:32:59;;;;;;;11.75;3.80;;;;;;;23.39;53.69;102055.59;5204962;28;21098;-58
2022/06/10 09:35:38;;;;;;;14.82;3.13;;;;;;;23.51;53.44;102050.44;5204687;28;20422;-58
2022/06/10 09:38:20;;;;;;;13.20;2.72;;;;;;;23.85;53.13;102057.53;5199733;28;20528;-55
2022/06/10 09:41:07;;;;;;;8.63;2.25;;;;;;;24.18;52.58;102051.25;5206703;28;20978;-58
2022/06/10 09:43:58;;;;;;;9.13;2.30;;;;;;;24.40;52.04;102057.19;5202245;28;20468;-54
2022/06/10 09:47:00;;;;;;;6.82;1.67;;;;;;;24.53;51.84;102064.50;5208584;28;20487;-60
2022/06/10 09:50:01;;;;;;;7.15;1.80;;;;;;;24.52;51.64;102060.09;5203576;28;20886;-58
2022/06/10 09:52:40;;;;;;;9.00;2.25;;;;;;;24.41;51.52;102055.34;5205119;28;20414;-56
2022/06/10 09:55:39;;;;;;;4.72;2.05;;;;;;;24.41;51.29;102060.75;5202722;28;20453;-58
2022/06/10 09:58:35;;;;;;;5.53;1.38;;;;;;;24.35;51.08;102065.94;5204426;28;20397;-58
2022/06/10 10:01:18;;;;;;;6.13;1.75;;;;;;;24.52;50.71;102069.03;5204319;28;20509;-59
2022/06/10 10:04:24;;;;;;;5.90;1.00;;;;;;;24.63;50.29;102070.25;5204128;28;20849;-56
2022/06/10 10:07:04;;;;;;;6.10;1.50;;;;;;;24.60;50.08;102070.69;5205041;28;20869;-58
2022/06/10 10:09:47;;;;;;;6.32;1.55;;;;;;;24.52;49.88;102062.81;5202730;28;20496;-59
2022/06/10 10:12:38;;;;;;;10.68;2.15;;;;;;;24.68;49.49;102069.59;5207163;28;20500;-54
2022/06/10 10:15:25;;;;;;;8.40;1.50;;;;;;;24.74;49.33;102068.75;5201223;28;20508;-59
2022/06/10 10:18:22;;;;;;;6.00;1.60;;;;;;;24.96;48.72;102053.91;5205563;28;20421;-59
2022/06/10 10:21:09;;;;;;;8.35;1.70;;;;;;;25.17;48.26;102060.88;5204879;28;20567;-53
2022/06/10 10:23:46;;;;;;;6.82;1.50;;;;;;;25.43;47.69;102053.66;5205304;28;20429;-54
2022/06/10 10:26:24;;;;;;;3.35;1.00;;;;;;;25.45;47.30;102062.34;5208645;28;20428;-57
2022/06/10 10:29:13;;;;;;;8.10;1.58;;;;;;;25.49;46.94;102063.59;5206020;28;20398;-52
2022/06/10 10:31:50;;;;;;;7.27;1.30;;;;;;;25.67;46.42;102066.34;5207934;28;20421;-51
2022/06/10 10:34:29;;;;;;;3.22;1.50;;;;;;;25.81;45.90;102058.13;5206613;28;20504;-57
2022/06/10 10:37:05;;;;;;;5.07;1.50;;;;;;;25.69;45.74;102049.91;5205318;28;20797;-57
2022/06/10 10:39:40;;;;;;;5.82;1.73;;;;;;;25.53;45.51;102038.56;5193201;28;20437;-57
2022/06/10 10:42:19;;;;;;;7.65;1.75;;;;;;;25.76;45.34;102069.59;5188415;28;20405;-58
2022/06/10 10:45:04;;;;;;;9.82;2.72;;;;;;;25.96;44.76;102069.47;5209623;28;20463;-58
2022/06/10 10:47:38;;;;;;;7.97;1.85;;;;;;;26.17;44.41;102071.78;5194611;28;20405;-59
2022/06/10 10:50:21;;;;;;;7.78;1.70;;;;;;;26.36;44.03;102077.19;5209118;28;20429;-57
2022/06/10 10:52:53;;;;;;;7.28;1.73;;;;;;;26.39;43.66;102063.22;5199210;28;20559;-58
2022/06/10 10:55:34;;;;;;;6.07;1.88;;;;;;;26.50;43.50;102078.72;5201498;28;20432;-59
2022/06/10 10:58:17;;;;;;;9.10;2.00;;;;;;;26.64;43.19;102074.81;5203350;28;20420;-60
2022/06/10 11:01:00;;;;;;;9.63;1.77;;;;;;;26.28;43.05;102001.66;5202274;28;20436;-58
2022/06/10 11:03:37;;;;;;;7.07;1.95;;;;;;;26.68;42.95;102080.59;5202014;28;20471;-54
2022/06/10 11:06:26;;;;;;;7.13;2.47;;;;;;;26.72;42.88;102078.25;5203021;28;20432;-59
2022/06/10 11:09:04;;;;;;;8.25;1.98;;;;;;;26.83;42.52;102085.63;5203733;28;20401;-63
2022/06/10 11:11:38;;;;;;;11.18;2.25;;;;;;;26.90;42.37;102089.91;5203336;28;20898;-58
2022/06/10 11:14:23;;;;;;;10.25;2.58;;;;;;;27.03;42.09;102091.59;5201557;28;20747;-58
2022/06/10 11:17:18;;;;;;;11.20;2.42;;;;;;;26.84;41.95;102054.75;5206120;28;20424;-59
2022/06/10 11:19:58;;;;;;;11.57;3.22;;;;;;;27.05;41.59;102084.06;5205247;28;20398;-57
2022/06/10 11:22:35;;;;;;;7.97;2.40;;;;;;;27.15;41.34;102090.88;5207513;28;20417;-57
2022/06/10 11:25:29;;;;;;;13.10;3.03;;;;;;;27.20;41.20;102096.44;5200226;28;20501;-58
2022/06/10 11:28:20;;;;;;;11.45;2.58;;;;;;;27.12;41.17;102101.06;5203451;28;20413;-56
2022/06/10 11:30:53;;;;;;;11.55;2.63;;;;;;;26.97;41.11;102092.53;5208399;28;20403;-58
2022/06/10 11:33:32;;;;;;;9.35;2.50;;;;;;;26.88;41.17;102096.59;5209598;28;20474;-58
2022/06/10 11:36:11;;;;;;;11.05;2.63;;;;;;;26.87;41.11;102092.25;5206633;28;20417;-59
2022/06/10 11:38:54;;;;;;;14.50;3.10;;;;;;;26.90;40.89;102098.03;5204276;28;20803;-55
2022/06/10 11:41:33;;;;;;;9.70;2.77;;;;;;;26.95;40.72;102089.22;5206172;28;20407;-55
2022/06/10 11:44:12;;;;;;;7.90;2.43;;;;;;;27.03;40.60;102088.06;5201741;28;20437;-61
2022/06/10 11:46:52;;;;;;;8.88;2.50;;;;;;;27.09;40.37;102090.69;5208066;28;20950;-52
2022/06/10 11:49:33;;;;;;;9.38;2.72;;;;;;;27.26;40.11;102100.94;5203826;28;20425;-58
2022/06/10 11:52:14;;;;;;;9.30;3.05;;;;;;;27.34;39.93;102084.31;5200590;28;20417;-53
2022/06/10 11:54:56;;;;;;;12.18;3.22;;;;;;;27.32;39.52;102072.91;5206355;28;20407;-58
2022/06/10 12:00:34;;;;;;;11.52;2.70;;;;;;;27.39;39.49;102095.31;5200822;28;20466;-54
2022/06/10 12:03:17;;;;;;;9.75;3.33;;;;;;;27.22;39.71;102105.97;5202616;28;20984;-58
2022/06/10 12:06:02;;;;;;;10.43;3.50;;;;;;;27.12;39.46;102079.38;5199897;28;20504;-54
2022/06/10 12:08:46;;;;;;;8.93;2.35;;;;;;;27.07;39.52;102087.41;5201938;28;20428;-58
2022/06/10 12:11:32;;;;;;;8.45;2.10;;;;;;;27.09;39.35;102074.41;5199908;28;20828;-58
2022/06/10 12:14:15;;;;;;;9.60;2.63;;;;;;;27.36;39.07;102084.94;5199370;28;20410;-48
2022/06/10 12:16:57;;;;;;;7.90;2.00;;;;;;;27.29;38.94;102078.78;5201381;28;20536;-55
2022/06/10 12:19:34;;;;;;;10.38;2.90;;;;;;;27.16;39.09;102090.66;5203007;28;20441;-53